sensor_id;sensor_type;location;lat;lon;timestamp;P1;durP1;ratioP1;P2;durP2;ratioP2
52590;SDS011;38483;42.620;25.394;2022-12-20T00:01:24;28.40;;;14.47;;
52590;SDS011;38483;42.620;25.394;2022-12-20T00:03:53;27.20;;;14.37;;
52590;SDS011;38483;42.620;25.394;2022-12-20T00:06:21;22.37;;;13.50;;
52590;SDS011;38483;42.620;25.394;2022-12-20T00:08:56;28.73;;;14.50;;
52590;SDS011;38483;42.620;25.394;2022-12-20T00:11:25;27.20;;;13.67;;
52590;SDS011;38483;42.620;25.394;2022-12-20T00:13:53;25.13;;;14.53;;
52590;SDS011;38483;42.620;25.394;2022-12-20T00:16:21;25.67;;;13.63;;
52590;SDS011;38483;42.620;25.394;2022-12-20T00:18:50;29.30;;;15.83;;
52590;SDS011;38483;42.620;25.394;2022-12-20T00:21:28;28.97;;;15.77;;
52590;SDS011;38483;42.620;25.394;2022-12-20T00:23:56;32.23;;;17.03;;
52590;SDS011;38483;42.620;25.394;2022-12-20T00:26:24;24.90;;;13.83;;
52590;SDS011;38483;42.620;25.394;2022-12-20T00:28:53;24.10;;;13.70;;
52590;SDS011;38483;42.620;25.394;2022-12-20T00:31:21;26.50;;;14.17;;
52590;SDS011;38483;42.620;25.394;2022-12-20T00:33:50;26.57;;;13.17;;
52590;SDS011;38483;42.620;25.394;2022-12-20T00:36:19;27.10;;;13.23;;
52590;SDS011;38483;42.620;25.394;2022-12-20T00:38:47;23.87;;;12.90;;
52590;SDS011;38483;42.620;25.394;2022-12-20T00:41:16;25.43;;;11.97;;
52590;SDS011;38483;42.620;25.394;2022-12-20T00:43:45;23.50;;;13.77;;
52590;SDS011;38483;42.620;25.394;2022-12-20T00:46:14;24.33;;;12.57;;
52590;SDS011;38483;42.620;25.394;2022-12-20T00:48:42;28.97;;;13.40;;
52590;SDS011;38483;42.620;25.394;2022-12-20T00:51:10;19.00;;;10.50;;
52590;SDS011;38483;42.620;25.394;2022-12-20T00:53:42;21.60;;;11.77;;
52590;SDS011;38483;42.620;25.394;2022-12-20T00:56:10;22.97;;;12.23;;
52590;SDS011;38483;42.620;25.394;2022-12-20T00:58:38;23.23;;;12.10;;
52590;SDS011;38483;42.620;25.394;2022-12-20T01:01:18;29.23;;;15.07;;
52590;SDS011;38483;42.620;25.394;2022-12-20T01:03:48;23.77;;;12.53;;
52590;SDS011;38483;42.620;25.394;2022-12-20T01:06:16;21.43;;;11.63;;
52590;SDS011;38483;42.620;25.394;2022-12-20T01:08:44;21.53;;;10.73;;
52590;SDS011;38483;42.620;25.394;2022-12-20T01:11:12;16.73;;;9.67;;
52590;SDS011;38483;42.620;25.394;2022-12-20T01:13:41;14.77;;;8.50;;
52590;SDS011;38483;42.620;25.394;2022-12-20T01:16:15;17.53;;;9.03;;
52590;SDS011;38483;42.620;25.394;2022-12-20T01:18:44;17.50;;;8.83;;
52590;SDS011;38483;42.620;25.394;2022-12-20T01:21:12;18.50;;;8.83;;
52590;SDS011;38483;42.620;25.394;2022-12-20T01:23:40;19.00;;;9.57;;
52590;SDS011;38483;42.620;25.394;2022-12-20T01:26:09;12.00;;;7.27;;
52590;SDS011;38483;42.620;25.394;2022-12-20T01:28:39;15.00;;;8.40;;
52590;SDS011;38483;42.620;25.394;2022-12-20T01:31:09;13.80;;;7.93;;
52590;SDS011;38483;42.620;25.394;2022-12-20T01:33:37;13.77;;;7.93;;
52590;SDS011;38483;42.620;25.394;2022-12-20T01:36:05;12.27;;;6.57;;
52590;SDS011;38483;42.620;25.394;2022-12-20T01:38:36;15.17;;;6.97;;
52590;SDS011;38483;42.620;25.394;2022-12-20T01:41:04;18.53;;;7.67;;
52590;SDS011;38483;42.620;25.394;2022-12-20T01:46:42;13.87;;;7.03;;
52590;SDS011;38483;42.620;25.394;2022-12-20T01:51:46;13.53;;;8.60;;
52590;SDS011;38483;42.620;25.394;2022-12-20T01:54:17;16.87;;;7.87;;
52590;SDS011;38483;42.620;25.394;2022-12-20T01:56:51;16.83;;;8.80;;
52590;SDS011;38483;42.620;25.394;2022-12-20T01:59:23;16.70;;;8.43;;
52590;SDS011;38483;42.620;25.394;2022-12-20T02:01:51;19.20;;;9.13;;
52590;SDS011;38483;42.620;25.394;2022-12-20T02:04:18;14.37;;;7.63;;
52590;SDS011;38483;42.620;25.394;2022-12-20T02:06:46;15.93;;;7.77;;
52590;SDS011;38483;42.620;25.394;2022-12-20T02:09:13;16.30;;;8.23;;
52590;SDS011;38483;42.620;25.394;2022-12-20T02:14:18;17.13;;;7.70;;
52590;SDS011;38483;42.620;25.394;2022-12-20T02:31:38;11.60;;;6.20;;
52590;SDS011;38483;42.620;25.394;2022-12-20T02:34:09;11.77;;;6.83;;
52590;SDS011;38483;42.620;25.394;2022-12-20T02:36:38;9.53;;;6.27;;
52590;SDS011;38483;42.620;25.394;2022-12-20T02:39:05;15.50;;;6.10;;
52590;SDS011;38483;42.620;25.394;2022-12-20T02:41:33;11.47;;;6.40;;
52590;SDS011;38483;42.620;25.394;2022-12-20T02:44:06;14.00;;;7.10;;
52590;SDS011;38483;42.620;25.394;2022-12-20T02:46:57;10.40;;;6.20;;
52590;SDS011;38483;42.620;25.394;2022-12-20T02:49:28;10.57;;;6.67;;
52590;SDS011;38483;42.620;25.394;2022-12-20T02:51:58;14.37;;;8.40;;
52590;SDS011;38483;42.620;25.394;2022-12-20T02:54:27;12.23;;;6.97;;
52590;SDS011;38483;42.620;25.394;2022-12-20T02:56:56;15.43;;;8.17;;
52590;SDS011;38483;42.620;25.394;2022-12-20T02:59:29;15.90;;;8.83;;
52590;SDS011;38483;42.620;25.394;2022-12-20T03:02:03;17.10;;;9.43;;
52590;SDS011;38483;42.620;25.394;2022-12-20T03:04:32;22.93;;;11.10;;
52590;SDS011;38483;42.620;25.394;2022-12-20T03:07:10;21.10;;;10.80;;
52590;SDS011;38483;42.620;25.394;2022-12-20T03:09:40;20.63;;;9.27;;
52590;SDS011;38483;42.620;25.394;2022-12-20T03:12:09;19.70;;;9.43;;
52590;SDS011;38483;42.620;25.394;2022-12-20T03:14:37;14.90;;;8.40;;
52590;SDS011;38483;42.620;25.394;2022-12-20T03:17:07;18.20;;;8.90;;
52590;SDS011;38483;42.620;25.394;2022-12-20T03:19:36;19.53;;;9.70;;
52590;SDS011;38483;42.620;25.394;2022-12-20T03:22:57;18.17;;;8.90;;
52590;SDS011;38483;42.620;25.394;2022-12-20T03:26:18;17.43;;;9.07;;
52590;SDS011;38483;42.620;25.394;2022-12-20T03:29:38;18.50;;;8.90;;
52590;SDS011;38483;42.620;25.394;2022-12-20T03:32:06;21.60;;;9.60;;
52590;SDS011;38483;42.620;25.394;2022-12-20T03:34:33;21.63;;;10.40;;
52590;SDS011;38483;42.620;25.394;2022-12-20T03:37:00;16.33;;;9.23;;
52590;SDS011;38483;42.620;25.394;2022-12-20T03:39:27;16.90;;;9.17;;
52590;SDS011;38483;42.620;25.394;2022-12-20T03:41:54;19.97;;;10.27;;
52590;SDS011;38483;42.620;25.394;2022-12-20T03:44:21;20.87;;;10.27;;
52590;SDS011;38483;42.620;25.394;2022-12-20T03:46:50;19.87;;;9.97;;
52590;SDS011;38483;42.620;25.394;2022-12-20T03:49:18;21.23;;;9.33;;
52590;SDS011;38483;42.620;25.394;2022-12-20T03:51:48;25.63;;;11.13;;
52590;SDS011;38483;42.620;25.394;2022-12-20T03:54:15;23.70;;;11.43;;
52590;SDS011;38483;42.620;25.394;2022-12-20T03:57:02;21.57;;;12.20;;
52590;SDS011;38483;42.620;25.394;2022-12-20T03:59:29;20.07;;;10.00;;
52590;SDS011;38483;42.620;25.394;2022-12-20T04:01:58;20.77;;;10.80;;
52590;SDS011;38483;42.620;25.394;2022-12-20T04:04:27;19.53;;;11.20;;
52590;SDS011;38483;42.620;25.394;2022-12-20T04:06:54;23.43;;;11.97;;
52590;SDS011;38483;42.620;25.394;2022-12-20T04:09:21;22.87;;;12.43;;
52590;SDS011;38483;42.620;25.394;2022-12-20T04:11:53;20.50;;;11.73;;
52590;SDS011;38483;42.620;25.394;2022-12-20T04:14:20;20.47;;;11.83;;
52590;SDS011;38483;42.620;25.394;2022-12-20T04:16:47;21.10;;;11.93;;
52590;SDS011;38483;42.620;25.394;2022-12-20T04:19:15;25.17;;;11.97;;
52590;SDS011;38483;42.620;25.394;2022-12-20T04:21:45;18.17;;;9.33;;
52590;SDS011;38483;42.620;25.394;2022-12-20T04:24:13;15.37;;;9.30;;
52590;SDS011;38483;42.620;25.394;2022-12-20T04:27:06;27.80;;;10.17;;
52590;SDS011;38483;42.620;25.394;2022-12-20T04:29:33;19.30;;;9.03;;
52590;SDS011;38483;42.620;25.394;2022-12-20T04:32:02;24.27;;;10.47;;
52590;SDS011;38483;42.620;25.394;2022-12-20T04:34:29;20.53;;;9.40;;
52590;SDS011;38483;42.620;25.394;2022-12-20T04:36:56;17.53;;;9.37;;
52590;SDS011;38483;42.620;25.394;2022-12-20T04:39:35;16.83;;;8.70;;
52590;SDS011;38483;42.620;25.394;2022-12-20T04:42:18;17.17;;;8.20;;
52590;SDS011;38483;42.620;25.394;2022-12-20T04:44:45;15.20;;;8.80;;
52590;SDS011;38483;42.620;25.394;2022-12-20T04:47:15;15.60;;;7.23;;
52590;SDS011;38483;42.620;25.394;2022-12-20T04:49:42;17.77;;;7.50;;
52590;SDS011;38483;42.620;25.394;2022-12-20T04:52:09;18.30;;;7.90;;
52590;SDS011;38483;42.620;25.394;2022-12-20T04:54:54;16.77;;;8.40;;
52590;SDS011;38483;42.620;25.394;2022-12-20T04:57:26;18.53;;;9.30;;
52590;SDS011;38483;42.620;25.394;2022-12-20T04:59:53;18.10;;;9.90;;
52590;SDS011;38483;42.620;25.394;2022-12-20T05:02:20;19.00;;;9.87;;
52590;SDS011;38483;42.620;25.394;2022-12-20T05:04:54;16.83;;;9.23;;
52590;SDS011;38483;42.620;25.394;2022-12-20T05:07:20;14.27;;;8.63;;
52590;SDS011;38483;42.620;25.394;2022-12-20T05:09:53;16.20;;;9.30;;
52590;SDS011;38483;42.620;25.394;2022-12-20T05:12:20;18.47;;;8.37;;
52590;SDS011;38483;42.620;25.394;2022-12-20T05:14:47;17.10;;;7.27;;
52590;SDS011;38483;42.620;25.394;2022-12-20T05:17:17;15.40;;;8.00;;
52590;SDS011;38483;42.620;25.394;2022-12-20T05:19:44;13.50;;;9.07;;
52590;SDS011;38483;42.620;25.394;2022-12-20T05:22:13;19.13;;;9.70;;
52590;SDS011;38483;42.620;25.394;2022-12-20T05:25:10;19.90;;;10.50;;
52590;SDS011;38483;42.620;25.394;2022-12-20T05:28:01;23.13;;;10.60;;
52590;SDS011;38483;42.620;25.394;2022-12-20T05:30:32;25.13;;;13.37;;
52590;SDS011;38483;42.620;25.394;2022-12-20T05:33:54;25.23;;;13.80;;
52590;SDS011;38483;42.620;25.394;2022-12-20T05:37:16;23.20;;;11.93;;
52590;SDS011;38483;42.620;25.394;2022-12-20T05:40:38;28.77;;;14.23;;
52590;SDS011;38483;42.620;25.394;2022-12-20T05:44:00;23.27;;;12.17;;
52590;SDS011;38483;42.620;25.394;2022-12-20T05:47:21;32.60;;;11.53;;
52590;SDS011;38483;42.620;25.394;2022-12-20T05:50:42;20.00;;;10.33;;
52590;SDS011;38483;42.620;25.394;2022-12-20T05:54:16;20.60;;;9.80;;
52590;SDS011;38483;42.620;25.394;2022-12-20T05:57:37;31.23;;;12.13;;
52590;SDS011;38483;42.620;25.394;2022-12-20T06:01:03;33.40;;;12.37;;
52590;SDS011;38483;42.620;25.394;2022-12-20T06:04:22;24.00;;;12.40;;
52590;SDS011;38483;42.620;25.394;2022-12-20T06:07:44;26.00;;;13.00;;
52590;SDS011;38483;42.620;25.394;2022-12-20T06:11:08;26.27;;;12.80;;
52590;SDS011;38483;42.620;25.394;2022-12-20T06:14:31;23.87;;;13.90;;
52590;SDS011;38483;42.620;25.394;2022-12-20T06:17:52;29.80;;;13.87;;
52590;SDS011;38483;42.620;25.394;2022-12-20T06:21:14;25.07;;;12.47;;
52590;SDS011;38483;42.620;25.394;2022-12-20T06:24:41;21.77;;;10.97;;
52590;SDS011;38483;42.620;25.394;2022-12-20T06:28:02;21.20;;;11.97;;
52590;SDS011;38483;42.620;25.394;2022-12-20T06:31:30;22.23;;;11.20;;
52590;SDS011;38483;42.620;25.394;2022-12-20T06:34:52;19.07;;;9.37;;
52590;SDS011;38483;42.620;25.394;2022-12-20T06:38:13;22.77;;;10.27;;
52590;SDS011;38483;42.620;25.394;2022-12-20T06:41:36;20.27;;;10.07;;
52590;SDS011;38483;42.620;25.394;2022-12-20T06:44:56;20.87;;;10.57;;
52590;SDS011;38483;42.620;25.394;2022-12-20T06:48:17;17.70;;;9.07;;
52590;SDS011;38483;42.620;25.394;2022-12-20T06:51:38;17.13;;;9.03;;
52590;SDS011;38483;42.620;25.394;2022-12-20T06:54:58;19.87;;;9.53;;
52590;SDS011;38483;42.620;25.394;2022-12-20T06:58:20;16.10;;;9.90;;
52590;SDS011;38483;42.620;25.394;2022-12-20T07:01:41;17.47;;;8.73;;
52590;SDS011;38483;42.620;25.394;2022-12-20T07:05:02;25.23;;;10.00;;
52590;SDS011;38483;42.620;25.394;2022-12-20T07:08:22;20.10;;;10.37;;
52590;SDS011;38483;42.620;25.394;2022-12-20T07:11:43;20.37;;;10.47;;
52590;SDS011;38483;42.620;25.394;2022-12-20T07:15:04;23.60;;;10.93;;
52590;SDS011;38483;42.620;25.394;2022-12-20T07:18:24;20.73;;;10.00;;
52590;SDS011;38483;42.620;25.394;2022-12-20T07:21:45;20.03;;;10.27;;
52590;SDS011;38483;42.620;25.394;2022-12-20T07:25:07;22.63;;;11.30;;
52590;SDS011;38483;42.620;25.394;2022-12-20T07:28:27;21.23;;;11.90;;
52590;SDS011;38483;42.620;25.394;2022-12-20T07:31:48;17.70;;;9.00;;
52590;SDS011;38483;42.620;25.394;2022-12-20T07:35:09;15.10;;;8.07;;
52590;SDS011;38483;42.620;25.394;2022-12-20T07:38:29;17.93;;;9.27;;
52590;SDS011;38483;42.620;25.394;2022-12-20T07:41:53;20.33;;;9.50;;
52590;SDS011;38483;42.620;25.394;2022-12-20T07:45:11;23.17;;;11.63;;
52590;SDS011;38483;42.620;25.394;2022-12-20T07:48:32;24.80;;;12.17;;
52590;SDS011;38483;42.620;25.394;2022-12-20T07:51:53;19.07;;;10.87;;
52590;SDS011;38483;42.620;25.394;2022-12-20T07:55:13;23.33;;;9.27;;
52590;SDS011;38483;42.620;25.394;2022-12-20T07:58:33;25.57;;;11.47;;
52590;SDS011;38483;42.620;25.394;2022-12-20T08:01:54;24.00;;;10.93;;
52590;SDS011;38483;42.620;25.394;2022-12-20T08:05:14;23.70;;;12.07;;
52590;SDS011;38483;42.620;25.394;2022-12-20T08:08:36;18.80;;;10.20;;
52590;SDS011;38483;42.620;25.394;2022-12-20T08:11:56;29.43;;;11.57;;
52590;SDS011;38483;42.620;25.394;2022-12-20T08:15:17;19.93;;;9.90;;
52590;SDS011;38483;42.620;25.394;2022-12-20T08:18:38;15.73;;;9.17;;
52590;SDS011;38483;42.620;25.394;2022-12-20T08:21:58;20.77;;;9.47;;
52590;SDS011;38483;42.620;25.394;2022-12-20T08:25:19;16.43;;;8.77;;
52590;SDS011;38483;42.620;25.394;2022-12-20T08:28:42;17.87;;;10.60;;
52590;SDS011;38483;42.620;25.394;2022-12-20T08:32:03;21.20;;;10.40;;
52590;SDS011;38483;42.620;25.394;2022-12-20T08:35:23;16.53;;;8.97;;
52590;SDS011;38483;42.620;25.394;2022-12-20T08:38:44;18.13;;;10.27;;
52590;SDS011;38483;42.620;25.394;2022-12-20T08:42:05;26.53;;;11.07;;
52590;SDS011;38483;42.620;25.394;2022-12-20T08:45:25;20.97;;;10.13;;
52590;SDS011;38483;42.620;25.394;2022-12-20T08:48:46;18.33;;;9.20;;
52590;SDS011;38483;42.620;25.394;2022-12-20T08:52:06;14.80;;;8.03;;
52590;SDS011;38483;42.620;25.394;2022-12-20T08:55:27;15.10;;;9.57;;
52590;SDS011;38483;42.620;25.394;2022-12-20T08:58:48;19.13;;;9.20;;
52590;SDS011;38483;42.620;25.394;2022-12-20T09:02:08;19.23;;;10.53;;
52590;SDS011;38483;42.620;25.394;2022-12-20T09:05:31;17.97;;;9.50;;
52590;SDS011;38483;42.620;25.394;2022-12-20T09:08:51;15.73;;;9.90;;
52590;SDS011;38483;42.620;25.394;2022-12-20T09:12:12;16.73;;;8.13;;
52590;SDS011;38483;42.620;25.394;2022-12-20T09:15:33;15.80;;;8.07;;
52590;SDS011;38483;42.620;25.394;2022-12-20T09:18:55;16.83;;;8.13;;
52590;SDS011;38483;42.620;25.394;2022-12-20T09:22:14;13.90;;;7.97;;
52590;SDS011;38483;42.620;25.394;2022-12-20T09:25:34;14.13;;;8.07;;
52590;SDS011;38483;42.620;25.394;2022-12-20T09:28:55;23.87;;;9.77;;
52590;SDS011;38483;42.620;25.394;2022-12-20T09:32:15;13.73;;;8.70;;
52590;SDS011;38483;42.620;25.394;2022-12-20T09:35:42;16.80;;;11.87;;
52590;SDS011;38483;42.620;25.394;2022-12-20T09:38:57;15.33;;;7.23;;
52590;SDS011;38483;42.620;25.394;2022-12-20T09:42:18;13.37;;;7.07;;
52590;SDS011;38483;42.620;25.394;2022-12-20T09:45:38;13.37;;;7.97;;
52590;SDS011;38483;42.620;25.394;2022-12-20T09:49:15;19.40;;;9.33;;
52590;SDS011;38483;42.620;25.394;2022-12-20T09:52:56;14.63;;;8.10;;
52590;SDS011;38483;42.620;25.394;2022-12-20T09:56:09;11.47;;;6.90;;
52590;SDS011;38483;42.620;25.394;2022-12-20T09:59:29;12.23;;;6.17;;
52590;SDS011;38483;42.620;25.394;2022-12-20T10:02:50;8.87;;;5.63;;
52590;SDS011;38483;42.620;25.394;2022-12-20T10:06:29;9.23;;;5.33;;
52590;SDS011;38483;42.620;25.394;2022-12-20T10:10:01;7.90;;;4.80;;
52590;SDS011;38483;42.620;25.394;2022-12-20T10:16:38;12.50;;;6.37;;
52590;SDS011;38483;42.620;25.394;2022-12-20T10:19:53;7.50;;;5.07;;
52590;SDS011;38483;42.620;25.394;2022-12-20T10:26:09;6.90;;;3.90;;
52590;SDS011;38483;42.620;25.394;2022-12-20T10:29:29;7.03;;;4.27;;
52590;SDS011;38483;42.620;25.394;2022-12-20T10:32:51;11.17;;;5.70;;
52590;SDS011;38483;42.620;25.394;2022-12-20T10:39:38;10.23;;;5.27;;
52590;SDS011;38483;42.620;25.394;2022-12-20T10:42:47;9.13;;;5.07;;
52590;SDS011;38483;42.620;25.394;2022-12-20T10:46:12;7.53;;;4.40;;
52590;SDS011;38483;42.620;25.394;2022-12-20T10:52:34;7.07;;;4.83;;
52590;SDS011;38483;42.620;25.394;2022-12-20T10:55:49;7.97;;;4.83;;
52590;SDS011;38483;42.620;25.394;2022-12-20T10:58:51;7.63;;;4.63;;
52590;SDS011;38483;42.620;25.394;2022-12-20T11:02:01;8.60;;;4.40;;
52590;SDS011;38483;42.620;25.394;2022-12-20T11:07:55;8.23;;;4.67;;
52590;SDS011;38483;42.620;25.394;2022-12-20T11:11:15;10.37;;;5.10;;
52590;SDS011;38483;42.620;25.394;2022-12-20T11:14:35;8.80;;;4.67;;
52590;SDS011;38483;42.620;25.394;2022-12-20T11:18:22;10.60;;;4.37;;
52590;SDS011;38483;42.620;25.394;2022-12-20T11:21:45;4.63;;;3.07;;
52590;SDS011;38483;42.620;25.394;2022-12-20T11:28:13;7.67;;;3.80;;
52590;SDS011;38483;42.620;25.394;2022-12-20T11:34:37;4.70;;;3.20;;
52590;SDS011;38483;42.620;25.394;2022-12-20T11:38:11;5.00;;;3.17;;
52590;SDS011;38483;42.620;25.394;2022-12-20T11:53:56;5.00;;;2.60;;
52590;SDS011;38483;42.620;25.394;2022-12-20T11:57:19;3.83;;;2.80;;
52590;SDS011;38483;42.620;25.394;2022-12-20T12:00:40;9.40;;;4.70;;
52590;SDS011;38483;42.620;25.394;2022-12-20T12:03:33;7.30;;;3.53;;
52590;SDS011;38483;42.620;25.394;2022-12-20T12:06:04;8.27;;;4.73;;
52590;SDS011;38483;42.620;25.394;2022-12-20T12:11:05;8.77;;;4.97;;
52590;SDS011;38483;42.620;25.394;2022-12-20T12:14:04;13.23;;;5.30;;
52590;SDS011;38483;42.620;25.394;2022-12-20T12:16:36;12.30;;;11.00;;
52590;SDS011;38483;42.620;25.394;2022-12-20T12:19:08;4.67;;;2.57;;
52590;SDS011;38483;42.620;25.394;2022-12-20T12:21:38;4.63;;;3.57;;
52590;SDS011;38483;42.620;25.394;2022-12-20T12:26:37;4.17;;;3.30;;
52590;SDS011;38483;42.620;25.394;2022-12-20T12:29:11;5.67;;;3.70;;
52590;SDS011;38483;42.620;25.394;2022-12-20T12:45:06;5.77;;;2.90;;
52590;SDS011;38483;42.620;25.394;2022-12-20T12:47:50;8.27;;;3.90;;
52590;SDS011;38483;42.620;25.394;2022-12-20T12:50:41;6.53;;;3.63;;
52590;SDS011;38483;42.620;25.394;2022-12-20T12:55:46;5.57;;;4.27;;
52590;SDS011;38483;42.620;25.394;2022-12-20T13:08:50;7.80;;;3.47;;
52590;SDS011;38483;42.620;25.394;2022-12-20T13:11:44;5.90;;;3.90;;
52590;SDS011;38483;42.620;25.394;2022-12-20T13:16:51;6.30;;;4.23;;
52590;SDS011;38483;42.620;25.394;2022-12-20T13:19:49;7.10;;;4.50;;
52590;SDS011;38483;42.620;25.394;2022-12-20T13:24:59;8.67;;;5.20;;
52590;SDS011;38483;42.620;25.394;2022-12-20T13:27:36;8.83;;;4.93;;
52590;SDS011;38483;42.620;25.394;2022-12-20T13:43:06;8.40;;;3.70;;
52590;SDS011;38483;42.620;25.394;2022-12-20T13:48:56;10.57;;;6.07;;
52590;SDS011;38483;42.620;25.394;2022-12-20T13:51:26;11.13;;;7.47;;
52590;SDS011;38483;42.620;25.394;2022-12-20T13:54:00;8.20;;;6.07;;
52590;SDS011;38483;42.620;25.394;2022-12-20T13:56:47;9.63;;;4.87;;
52590;SDS011;38483;42.620;25.394;2022-12-20T13:59:24;10.10;;;4.83;;
52590;SDS011;38483;42.620;25.394;2022-12-20T14:01:54;11.27;;;6.43;;
52590;SDS011;38483;42.620;25.394;2022-12-20T14:04:26;8.27;;;6.07;;
52590;SDS011;38483;42.620;25.394;2022-12-20T14:07:07;10.47;;;6.27;;
52590;SDS011;38483;42.620;25.394;2022-12-20T14:09:38;10.60;;;5.73;;
52590;SDS011;38483;42.620;25.394;2022-12-20T14:12:09;9.63;;;5.77;;
52590;SDS011;38483;42.620;25.394;2022-12-20T14:14:42;11.07;;;6.90;;
52590;SDS011;38483;42.620;25.394;2022-12-20T14:17:18;16.73;;;7.83;;
52590;SDS011;38483;42.620;25.394;2022-12-20T14:20:03;13.03;;;7.43;;
52590;SDS011;38483;42.620;25.394;2022-12-20T14:22:46;13.30;;;8.93;;
52590;SDS011;38483;42.620;25.394;2022-12-20T14:28:02;17.13;;;9.60;;
52590;SDS011;38483;42.620;25.394;2022-12-20T14:30:31;21.43;;;10.80;;
52590;SDS011;38483;42.620;25.394;2022-12-20T14:33:02;20.37;;;11.87;;
52590;SDS011;38483;42.620;25.394;2022-12-20T14:35:29;26.03;;;14.50;;
52590;SDS011;38483;42.620;25.394;2022-12-20T14:37:57;25.13;;;14.87;;
52590;SDS011;38483;42.620;25.394;2022-12-20T14:40:27;33.27;;;16.10;;
52590;SDS011;38483;42.620;25.394;2022-12-20T14:43:53;29.90;;;19.30;;
52590;SDS011;38483;42.620;25.394;2022-12-20T14:46:55;31.47;;;17.27;;
52590;SDS011;38483;42.620;25.394;2022-12-20T14:49:31;26.33;;;15.57;;
52590;SDS011;38483;42.620;25.394;2022-12-20T15:02:59;23.37;;;14.60;;
52590;SDS011;38483;42.620;25.394;2022-12-20T15:06:36;24.10;;;13.83;;
52590;SDS011;38483;42.620;25.394;2022-12-20T15:09:54;34.17;;;17.93;;
52590;SDS011;38483;42.620;25.394;2022-12-20T15:13:16;39.77;;;22.10;;
52590;SDS011;38483;42.620;25.394;2022-12-20T15:16:44;35.30;;;19.33;;
52590;SDS011;38483;42.620;25.394;2022-12-20T15:19:57;30.30;;;17.10;;
52590;SDS011;38483;42.620;25.394;2022-12-20T15:23:18;34.33;;;17.50;;
52590;SDS011;38483;42.620;25.394;2022-12-20T15:26:38;32.83;;;18.17;;
52590;SDS011;38483;42.620;25.394;2022-12-20T15:29:59;36.00;;;18.23;;
52590;SDS011;38483;42.620;25.394;2022-12-20T15:33:21;38.20;;;18.40;;
52590;SDS011;38483;42.620;25.394;2022-12-20T15:35:50;33.03;;;18.13;;
52590;SDS011;38483;42.620;25.394;2022-12-20T15:38:19;37.37;;;19.30;;
52590;SDS011;38483;42.620;25.394;2022-12-20T15:41:09;38.73;;;18.30;;
52590;SDS011;38483;42.620;25.394;2022-12-20T15:43:42;35.23;;;16.90;;
52590;SDS011;38483;42.620;25.394;2022-12-20T15:46:10;26.40;;;15.60;;
52590;SDS011;38483;42.620;25.394;2022-12-20T15:48:40;29.90;;;16.60;;
52590;SDS011;38483;42.620;25.394;2022-12-20T15:51:27;26.13;;;17.70;;
52590;SDS011;38483;42.620;25.394;2022-12-20T15:53:57;38.77;;;18.20;;
52590;SDS011;38483;42.620;25.394;2022-12-20T15:56:25;37.87;;;21.60;;
52590;SDS011;38483;42.620;25.394;2022-12-20T15:58:53;39.67;;;22.00;;
52590;SDS011;38483;42.620;25.394;2022-12-20T16:01:21;46.70;;;23.50;;
52590;SDS011;38483;42.620;25.394;2022-12-20T16:03:52;42.77;;;22.47;;
52590;SDS011;38483;42.620;25.394;2022-12-20T16:06:19;51.63;;;25.90;;
52590;SDS011;38483;42.620;25.394;2022-12-20T16:08:46;38.30;;;19.27;;
52590;SDS011;38483;42.620;25.394;2022-12-20T16:11:21;55.27;;;26.13;;
52590;SDS011;38483;42.620;25.394;2022-12-20T16:13:56;44.80;;;24.17;;
52590;SDS011;38483;42.620;25.394;2022-12-20T16:16:25;36.80;;;20.37;;
52590;SDS011;38483;42.620;25.394;2022-12-20T16:18:54;24.47;;;14.80;;
52590;SDS011;38483;42.620;25.394;2022-12-20T16:21:28;48.83;;;27.17;;
52590;SDS011;38483;42.620;25.394;2022-12-20T16:23:57;38.13;;;19.70;;
52590;SDS011;38483;42.620;25.394;2022-12-20T16:26:25;36.93;;;20.73;;
52590;SDS011;38483;42.620;25.394;2022-12-20T16:28:52;39.07;;;19.67;;
52590;SDS011;38483;42.620;25.394;2022-12-20T16:31:28;32.10;;;16.43;;
52590;SDS011;38483;42.620;25.394;2022-12-20T16:34:00;32.80;;;17.47;;
52590;SDS011;38483;42.620;25.394;2022-12-20T16:36:29;26.03;;;14.20;;
52590;SDS011;38483;42.620;25.394;2022-12-20T16:38:57;22.00;;;13.20;;
52590;SDS011;38483;42.620;25.394;2022-12-20T16:41:24;23.80;;;14.30;;
52590;SDS011;38483;42.620;25.394;2022-12-20T16:43:53;21.00;;;11.27;;
52590;SDS011;38483;42.620;25.394;2022-12-20T16:46:23;16.27;;;10.70;;
52590;SDS011;38483;42.620;25.394;2022-12-20T16:48:56;22.97;;;12.37;;
52590;SDS011;38483;42.620;25.394;2022-12-20T16:53:54;23.93;;;15.17;;
52590;SDS011;38483;42.620;25.394;2022-12-20T16:56:42;25.33;;;14.07;;
52590;SDS011;38483;42.620;25.394;2022-12-20T16:59:10;22.77;;;12.70;;
52590;SDS011;38483;42.620;25.394;2022-12-20T17:01:48;19.37;;;11.83;;
52590;SDS011;38483;42.620;25.394;2022-12-20T17:04:18;21.17;;;13.83;;
52590;SDS011;38483;42.620;25.394;2022-12-20T17:06:46;22.87;;;12.47;;
52590;SDS011;38483;42.620;25.394;2022-12-20T17:09:13;16.87;;;12.33;;
52590;SDS011;38483;42.620;25.394;2022-12-20T17:11:42;18.43;;;10.70;;
52590;SDS011;38483;42.620;25.394;2022-12-20T17:14:10;21.97;;;12.03;;
52590;SDS011;38483;42.620;25.394;2022-12-20T17:16:41;25.67;;;14.40;;
52590;SDS011;38483;42.620;25.394;2022-12-20T17:19:11;25.20;;;15.07;;
52590;SDS011;38483;42.620;25.394;2022-12-20T17:21:43;29.10;;;15.60;;
52590;SDS011;38483;42.620;25.394;2022-12-20T17:24:30;32.20;;;17.80;;
52590;SDS011;38483;42.620;25.394;2022-12-20T17:26:57;36.63;;;21.63;;
52590;SDS011;38483;42.620;25.394;2022-12-20T17:29:25;48.50;;;26.77;;
52590;SDS011;38483;42.620;25.394;2022-12-20T17:31:52;56.00;;;27.93;;
52590;SDS011;38483;42.620;25.394;2022-12-20T17:34:20;41.40;;;22.93;;
52590;SDS011;38483;42.620;25.394;2022-12-20T17:36:50;23.93;;;16.27;;
52590;SDS011;38483;42.620;25.394;2022-12-20T17:39:18;32.97;;;17.73;;
52590;SDS011;38483;42.620;25.394;2022-12-20T17:41:46;32.27;;;18.60;;
52590;SDS011;38483;42.620;25.394;2022-12-20T17:44:24;35.80;;;19.47;;
52590;SDS011;38483;42.620;25.394;2022-12-20T17:46:53;46.53;;;22.30;;
52590;SDS011;38483;42.620;25.394;2022-12-20T17:49:24;47.37;;;25.93;;
52590;SDS011;38483;42.620;25.394;2022-12-20T17:51:51;56.80;;;33.00;;
52590;SDS011;38483;42.620;25.394;2022-12-20T17:54:22;59.97;;;32.47;;
52590;SDS011;38483;42.620;25.394;2022-12-20T17:56:51;46.60;;;27.33;;
52590;SDS011;38483;42.620;25.394;2022-12-20T17:59:22;64.40;;;33.13;;
52590;SDS011;38483;42.620;25.394;2022-12-20T18:01:51;87.57;;;45.33;;
52590;SDS011;38483;42.620;25.394;2022-12-20T18:04:18;88.57;;;44.33;;
52590;SDS011;38483;42.620;25.394;2022-12-20T18:06:46;122.30;;;55.03;;
52590;SDS011;38483;42.620;25.394;2022-12-20T18:09:14;99.03;;;44.80;;
52590;SDS011;38483;42.620;25.394;2022-12-20T18:11:42;91.93;;;42.17;;
52590;SDS011;38483;42.620;25.394;2022-12-20T18:14:10;68.30;;;35.63;;
52590;SDS011;38483;42.620;25.394;2022-12-20T18:16:37;64.53;;;32.70;;
52590;SDS011;38483;42.620;25.394;2022-12-20T18:19:05;54.47;;;28.23;;
52590;SDS011;38483;42.620;25.394;2022-12-20T18:21:33;37.03;;;22.83;;
52590;SDS011;38483;42.620;25.394;2022-12-20T18:24:00;41.20;;;22.77;;
52590;SDS011;38483;42.620;25.394;2022-12-20T18:26:30;38.47;;;24.23;;